CPU5 weather

Orillia/Matchedash Lake Seaplane Base
Orillia, Ontario, Canada

Public forecast

Using degrees Celsius for public forecast. Weather courtesy of forecast.io.

Closest aviation weather report (METAR) to Orillia/Matchedash Lake Seaplane Base

Closest report is Muskoka Airport, 13.9 nm (25.8 km) NE. Retrieved 2019/12/06 05:38 UTC (0 seconds ago):

CYQA 060538Z AUTO VRB02KT 2 1/4SM -SN OVC031 M07/M09 A2998 RMK SLP171

Closest aviation forecast (TAF) to Orillia/Matchedash Lake Seaplane Base

Forecast is more than 6 hours old.

Closest forecast is Muskoka Airport, 13.9 nm (25.8 km) NE. Retrieved 2019/12/05 20:00 UTC (9 hours ago):

TAF CYQA 051938Z 0520/0603 31010G20KT P6SM OVC070 TEMPO 0520/0603 P6SM -SN OVC020 BECMG 0600/0602 VRB03KT RMK FCST BASED ON AUTO OBS NXT FCST WILL BE ISSUED AT 061245Z